createdAt,value
2017-04-24T00:00:02.790Z,2.43
2017-04-24T00:15:02.392Z,2.32
2017-04-24T00:30:02.762Z,2.39
2017-04-24T00:45:02.425Z,2.31
2017-04-24T01:00:02.209Z,2.28
2017-04-24T01:15:02.351Z,2.22
2017-04-24T01:30:02.421Z,2.12
2017-04-24T01:45:02.449Z,2.06
2017-04-24T02:00:02.461Z,2.07
2017-04-24T02:15:02.673Z,2.03
2017-04-24T02:30:03.078Z,2.06
2017-04-24T02:45:02.902Z,2.09
2017-04-24T03:00:02.779Z,2.13
2017-04-24T03:15:02.888Z,2.1
2017-04-24T03:30:02.779Z,2.07
2017-04-24T03:45:02.290Z,2.09
2017-04-24T04:00:02.805Z,2.12
2017-04-24T04:15:02.830Z,2.14
2017-04-24T04:30:02.451Z,2.16
2017-04-24T04:45:02.996Z,2.24
2017-04-24T05:00:02.306Z,2.23
2017-04-24T05:15:03.109Z,2.3
2017-04-24T05:30:03.080Z,2.5
2017-04-24T05:45:02.575Z,2.84
2017-04-24T06:00:03.039Z,3.39
2017-04-24T06:30:02.152Z,4.43
2017-04-24T06:45:03.138Z,4.95
2017-04-24T07:00:02.609Z,5.55
2017-04-24T07:15:02.610Z,6.05
2017-04-24T07:30:02.252Z,6.39
2017-04-24T07:45:02.784Z,7.2
2017-04-24T08:00:02.262Z,7.53
2017-04-24T08:15:02.600Z,9.1
2017-04-24T08:30:02.652Z,8.53
2017-04-24T08:45:03.128Z,8.75
2017-04-24T09:00:02.652Z,9.85
2017-04-24T09:15:03.179Z,11.59
2017-04-24T09:30:02.961Z,11.72
2017-04-24T09:45:02.925Z,13.59
2017-04-24T10:00:02.501Z,14.14
2017-04-24T10:15:03.089Z,12.81
2017-04-24T10:30:02.910Z,12.01
2017-04-24T10:45:03.107Z,12.19
2017-04-24T11:00:02.644Z,12.31
2017-04-24T11:15:02.325Z,13.3
2017-04-24T11:30:02.675Z,13.95
2017-04-24T11:45:02.720Z,14
2017-04-24T12:00:02.221Z,13.95
2017-04-24T12:15:02.811Z,14.34
2017-04-24T12:30:02.522Z,14.27
2017-04-24T12:45:02.400Z,13.17
2017-04-24T13:00:02.584Z,13
2017-04-24T13:15:02.197Z,13.51
2017-04-24T13:30:03.088Z,13.35
2017-04-24T13:45:02.210Z,12.72
2017-04-24T14:00:02.787Z,12.64
2017-04-24T14:15:02.531Z,12.82
2017-04-24T14:30:02.359Z,12.7
2017-04-24T14:45:02.953Z,12.6
2017-04-24T15:00:02.427Z,12.56
2017-04-24T15:15:02.490Z,12.43
2017-04-24T15:30:02.211Z,12.26
2017-04-24T15:45:02.662Z,12.02
2017-04-24T16:00:02.949Z,11.57
2017-04-24T16:15:03.057Z,11.02
2017-04-24T16:30:03.149Z,10.67
2017-04-24T16:45:03.166Z,10.49
2017-04-24T17:00:03.129Z,10.37
2017-04-24T17:15:03.499Z,10.35
2017-04-24T17:30:02.698Z,10.31
2017-04-24T17:45:03.206Z,10.29
2017-04-24T18:00:59.529Z,10.22
2017-04-24T18:15:02.974Z,10.08
2017-04-24T18:30:03.007Z,9.89
2017-04-24T18:45:02.515Z,9.76
2017-04-24T19:00:02.240Z,9.57
2017-04-24T19:15:02.418Z,9.2
2017-04-24T19:30:02.395Z,8.8
2017-04-24T19:45:02.842Z,8.61
2017-04-24T20:00:03.030Z,8.51
2017-04-24T20:15:02.749Z,8.52
2017-04-24T20:30:02.572Z,8.52
2017-04-24T20:45:02.136Z,8.47
2017-04-24T21:00:02.639Z,8.43
2017-04-24T21:15:02.231Z,8.42
2017-04-24T21:30:02.884Z,8.43
2017-04-24T21:45:02.603Z,8.41
2017-04-24T22:00:02.151Z,8.43
2017-04-24T22:15:02.372Z,8.45
2017-04-24T22:30:02.831Z,8.39
2017-04-24T22:45:03.068Z,8.37
2017-04-24T23:00:02.813Z,8.32
2017-04-24T23:15:02.965Z,8.34
2017-04-24T23:30:03.096Z,8.37
2017-04-24T23:45:02.743Z,8.5
